createdAt,value
2022-11-16T00:01:20.027Z,11.06
2022-11-16T00:03:46.681Z,11.34
2022-11-16T00:06:14.690Z,11.40
2022-11-16T00:08:44.010Z,11.62
2022-11-16T00:11:14.552Z,11.64
2022-11-16T00:13:42.965Z,11.68
2022-11-16T00:16:17.952Z,11.68
2022-11-16T00:18:44.922Z,11.85
2022-11-16T00:21:11.594Z,11.82
2022-11-16T00:23:38.975Z,11.89
2022-11-16T00:26:10.042Z,11.93
2022-11-16T00:28:36.904Z,11.86
2022-11-16T00:31:05.807Z,11.92
2022-11-16T00:33:33.326Z,11.83
2022-11-16T00:36:05.202Z,11.85
2022-11-16T00:38:32.262Z,11.89
2022-11-16T00:40:58.995Z,11.89
2022-11-16T00:43:25.952Z,11.98
2022-11-16T00:45:52.866Z,11.74
2022-11-16T00:48:19.800Z,11.81
2022-11-16T00:50:47.088Z,11.67
2022-11-16T00:53:16.608Z,11.80
2022-11-16T00:55:44.400Z,11.76
2022-11-16T00:58:11.750Z,11.69
2022-11-16T01:00:41.500Z,11.47
2022-11-16T01:03:08.295Z,11.35
2022-11-16T01:05:35.000Z,11.40
2022-11-16T01:08:01.796Z,11.46
2022-11-16T01:10:30.174Z,11.63
2022-11-16T01:12:56.745Z,11.73
2022-11-16T01:15:26.710Z,11.79
2022-11-16T01:17:54.957Z,11.91
2022-11-16T01:20:27.324Z,11.96
2022-11-16T01:22:54.333Z,11.92
2022-11-16T01:25:21.264Z,11.71
2022-11-16T01:27:48.026Z,11.65
2022-11-16T01:30:29.334Z,11.60
2022-11-16T01:33:01.289Z,11.65
2022-11-16T01:35:27.912Z,11.68
2022-11-16T01:37:54.491Z,11.85
2022-11-16T01:40:21.086Z,11.77
2022-11-16T01:42:48.164Z,11.91
2022-11-16T01:45:37.957Z,11.79
2022-11-16T01:48:09.617Z,11.94
2022-11-16T01:50:37.040Z,11.98
2022-11-16T01:53:07.352Z,11.94
2022-11-16T01:55:54.306Z,11.98
2022-11-16T01:58:32.852Z,11.89
2022-11-16T02:01:20.161Z,12.01
2022-11-16T02:03:52.156Z,11.76
2022-11-16T02:06:28.155Z,11.70
2022-11-16T02:09:34.173Z,11.68
2022-11-16T02:12:16.822Z,11.72
2022-11-16T02:15:08.386Z,11.82
2022-11-16T02:18:00.276Z,11.94
2022-11-16T02:20:45.362Z,12.01
2022-11-16T02:23:39.332Z,11.98
2022-11-16T02:26:14.894Z,12.01
2022-11-16T02:29:00.150Z,11.92
2022-11-16T02:31:37.586Z,11.90
2022-11-16T02:34:09.942Z,11.87
2022-11-16T02:36:41.564Z,11.66
2022-11-16T02:39:14.685Z,11.69
2022-11-16T02:41:44.147Z,11.47
2022-11-16T02:44:22.687Z,11.40
2022-11-16T02:46:55.666Z,11.29
2022-11-16T02:49:25.642Z,11.46
2022-11-16T02:51:54.360Z,11.31
2022-11-16T02:54:22.574Z,11.31
2022-11-16T02:57:04.225Z,11.36
2022-11-16T02:59:41.615Z,11.35
2022-11-16T03:02:24.178Z,11.42
2022-11-16T03:04:57.521Z,11.53
2022-11-16T03:07:30.607Z,11.61
2022-11-16T03:09:59.368Z,11.67
2022-11-16T03:12:31.136Z,11.68
2022-11-16T03:15:06.015Z,11.70
2022-11-16T03:17:32.581Z,11.73
2022-11-16T03:20:04.825Z,12.00
2022-11-16T03:22:41.628Z,11.97
2022-11-16T03:25:11.663Z,12.06
2022-11-16T03:27:45.003Z,11.74
2022-11-16T03:30:17.365Z,11.44
2022-11-16T03:33:06.209Z,11.33
2022-11-16T03:35:49.310Z,11.25
2022-11-16T03:38:19.621Z,11.22
2022-11-16T03:40:47.699Z,11.20
2022-11-16T03:43:17.425Z,11.15
2022-11-16T03:45:45.623Z,11.24
2022-11-16T03:48:12.873Z,11.26
2022-11-16T03:50:41.165Z,11.27
2022-11-16T03:53:09.350Z,11.23
2022-11-16T03:55:37.713Z,11.25
2022-11-16T03:58:04.813Z,11.14
2022-11-16T04:00:32.786Z,10.87
2022-11-16T04:03:06.639Z,10.86
2022-11-16T04:05:51.838Z,10.78
2022-11-16T04:08:37.305Z,10.83
2022-11-16T04:11:23.814Z,10.89
2022-11-16T04:14:10.818Z,10.81
2022-11-16T04:17:00.216Z,10.80
2022-11-16T04:19:45.503Z,10.92
2022-11-16T04:22:46.801Z,10.96
2022-11-16T04:25:22.237Z,11.00
2022-11-16T04:28:07.937Z,10.93
2022-11-16T04:30:54.584Z,10.99
2022-11-16T04:33:39.660Z,11.01
2022-11-16T04:36:25.477Z,11.01
2022-11-16T04:38:52.073Z,11.06
2022-11-16T04:41:37.341Z,11.02
2022-11-16T04:44:04.006Z,11.16
2022-11-16T04:46:49.420Z,11.19
2022-11-16T04:49:16.028Z,11.07
2022-11-16T04:51:43.601Z,10.92
2022-11-16T04:54:10.238Z,10.87
2022-11-16T04:56:37.817Z,10.77
2022-11-16T04:59:04.623Z,10.84
2022-11-16T05:01:50.078Z,10.97
2022-11-16T05:04:17.164Z,10.84
2022-11-16T05:06:43.986Z,11.04
2022-11-16T05:09:10.731Z,10.98
2022-11-16T05:11:37.336Z,10.96
2022-11-16T05:14:05.232Z,10.93
2022-11-16T05:16:33.572Z,11.00
2022-11-16T05:19:18.963Z,10.84
2022-11-16T05:21:45.676Z,10.83
2022-11-16T05:24:30.908Z,10.88
2022-11-16T05:27:01.108Z,10.91
2022-11-16T05:29:27.988Z,10.91
2022-11-16T05:31:54.662Z,10.98
2022-11-16T05:34:25.569Z,11.00
2022-11-16T05:36:52.553Z,10.96
2022-11-16T05:39:19.602Z,11.13
2022-11-16T05:41:49.275Z,10.98
2022-11-16T05:44:16.577Z,10.97
2022-11-16T05:46:45.094Z,11.00
2022-11-16T05:49:13.839Z,10.89
2022-11-16T05:51:43.153Z,10.92
2022-11-16T05:54:12.801Z,10.93
2022-11-16T05:56:39.872Z,10.90
2022-11-16T05:59:07.862Z,10.89
2022-11-16T06:01:35.894Z,10.98
2022-11-16T06:04:03.333Z,11.00
2022-11-16T06:06:32.516Z,10.98
2022-11-16T06:09:00.019Z,11.11
2022-11-16T06:11:31.365Z,11.11
2022-11-16T06:14:01.034Z,11.04
2022-11-16T06:16:27.624Z,10.94
2022-11-16T06:18:54.367Z,10.98
2022-11-16T06:21:21.044Z,11.09
2022-11-16T06:23:48.520Z,11.10
2022-11-16T06:26:15.219Z,10.99
2022-11-16T06:28:44.882Z,10.99
2022-11-16T06:31:12.124Z,10.83
2022-11-16T06:33:41.666Z,10.91
2022-11-16T06:36:19.389Z,10.91
2022-11-16T06:38:46.476Z,10.94
2022-11-16T06:41:13.535Z,10.85
2022-11-16T06:43:44.534Z,10.77
2022-11-16T06:46:11.429Z,10.86
2022-11-16T06:48:39.587Z,10.92
2022-11-16T06:51:10.677Z,10.80
2022-11-16T06:53:37.342Z,10.82
2022-11-16T06:56:06.378Z,10.77
2022-11-16T06:58:39.938Z,10.75
2022-11-16T07:01:11.488Z,10.67
2022-11-16T07:03:40.474Z,10.52
2022-11-16T07:06:10.542Z,10.49
2022-11-16T07:08:39.904Z,10.46
2022-11-16T07:11:09.862Z,10.39
2022-11-16T07:13:37.970Z,10.48
2022-11-16T07:16:07.688Z,10.44
2022-11-16T07:18:37.024Z,10.47
2022-11-16T07:21:12.845Z,10.53
2022-11-16T07:23:39.963Z,10.47
2022-11-16T07:26:10.417Z,10.47
2022-11-16T07:28:47.938Z,10.47
2022-11-16T07:31:18.203Z,10.53
2022-11-16T07:33:46.019Z,10.60
2022-11-16T07:36:40.112Z,10.62
2022-11-16T07:39:10.172Z,10.61
2022-11-16T07:41:42.519Z,10.50
2022-11-16T07:44:16.809Z,10.56
2022-11-16T07:46:46.996Z,10.65
2022-11-16T07:49:17.186Z,10.78
2022-11-16T07:52:00.167Z,10.83
2022-11-16T07:54:49.897Z,10.70
2022-11-16T07:57:16.694Z,10.68
2022-11-16T07:59:43.929Z,10.77
2022-11-16T08:02:11.579Z,10.71
2022-11-16T08:04:40.388Z,10.76
2022-11-16T08:07:08.531Z,10.79
2022-11-16T08:09:41.227Z,10.71
2022-11-16T08:12:11.820Z,10.59
2022-11-16T08:14:39.815Z,10.75
2022-11-16T08:17:08.332Z,10.69
2022-11-16T08:19:36.640Z,10.79
2022-11-16T08:22:03.820Z,10.78
2022-11-16T08:24:32.777Z,10.88
2022-11-16T08:26:59.491Z,10.76
2022-11-16T08:29:27.039Z,10.84
2022-11-16T08:31:56.090Z,10.87
2022-11-16T08:34:23.221Z,10.96
2022-11-16T08:36:56.177Z,11.01
2022-11-16T08:39:29.144Z,11.00
2022-11-16T08:41:55.806Z,10.96
2022-11-16T08:44:22.910Z,10.77
2022-11-16T08:46:52.599Z,10.69
2022-11-16T08:49:48.180Z,10.88
2022-11-16T08:52:16.629Z,11.17
2022-11-16T08:54:43.872Z,11.03
2022-11-16T08:57:11.120Z,11.01
2022-11-16T08:59:39.578Z,10.95
2022-11-16T09:02:10.643Z,11.01
2022-11-16T09:04:37.522Z,10.95
2022-11-16T09:07:04.520Z,11.03
2022-11-16T09:09:31.226Z,11.05
2022-11-16T09:11:57.785Z,11.13
2022-11-16T09:14:28.981Z,11.13
2022-11-16T09:16:55.585Z,11.08
2022-11-16T09:19:22.404Z,11.05
2022-11-16T09:21:48.995Z,11.17
2022-11-16T09:24:15.799Z,11.39
2022-11-16T09:26:42.395Z,11.16
2022-11-16T09:29:14.119Z,11.08
2022-11-16T09:31:41.782Z,11.32
2022-11-16T09:34:11.999Z,11.30
2022-11-16T09:36:38.640Z,11.37
2022-11-16T09:42:13.918Z,11.50
2022-11-16T09:45:08.952Z,11.42
2022-11-16T09:47:42.964Z,11.32
2022-11-16T09:50:30.035Z,11.37
2022-11-16T09:53:06.126Z,11.50
2022-11-16T09:55:38.014Z,11.34
2022-11-16T09:58:14.679Z,11.54
2022-11-16T10:00:53.132Z,11.51
2022-11-16T10:03:19.789Z,11.42
2022-11-16T10:06:05.007Z,11.53
2022-11-16T10:08:48.925Z,11.58
2022-11-16T10:11:36.114Z,11.55
2022-11-16T10:14:26.102Z,11.59
2022-11-16T10:16:55.684Z,11.65
2022-11-16T10:19:43.276Z,11.72
2022-11-16T10:22:32.236Z,11.71
2022-11-16T10:25:42.070Z,11.71
2022-11-16T10:28:40.157Z,11.96
2022-11-16T10:31:22.150Z,12.08
2022-11-16T10:33:54.104Z,11.93
2022-11-16T10:36:22.350Z,11.85
2022-11-16T10:38:48.970Z,11.85
2022-11-16T10:41:20.195Z,12.03
2022-11-16T10:43:48.231Z,12.05
2022-11-16T10:46:24.251Z,12.11
2022-11-16T10:49:29.219Z,11.93
2022-11-16T10:51:56.073Z,12.09
2022-11-16T10:54:22.776Z,12.16
2022-11-16T10:56:58.036Z,12.15
2022-11-16T10:59:41.768Z,12.17
2022-11-16T11:02:26.831Z,12.10
2022-11-16T11:05:08.198Z,12.27
2022-11-16T11:07:39.859Z,12.29
2022-11-16T11:10:28.077Z,12.06
2022-11-16T11:13:26.731Z,12.02
2022-11-16T11:16:16.409Z,11.96
2022-11-16T11:18:43.222Z,11.92
2022-11-16T11:21:21.244Z,12.10
2022-11-16T11:23:51.299Z,12.29
2022-11-16T11:26:40.093Z,12.23
2022-11-16T11:29:20.808Z,12.30
2022-11-16T11:31:52.204Z,12.25
2022-11-16T11:34:23.876Z,12.54
2022-11-16T11:37:00.314Z,12.66
2022-11-16T11:39:34.801Z,12.87
2022-11-16T11:42:13.823Z,12.37
2022-11-16T11:44:49.777Z,12.45
2022-11-16T11:47:59.989Z,12.53
2022-11-16T11:50:34.102Z,12.13
2022-11-16T11:53:22.366Z,12.10
2022-11-16T11:55:54.908Z,12.24
2022-11-16T11:58:31.700Z,12.47
2022-11-16T12:01:25.558Z,12.16
2022-11-16T12:04:19.976Z,11.92
2022-11-16T12:06:55.768Z,12.14
2022-11-16T12:09:31.774Z,12.25
2022-11-16T12:12:18.831Z,12.30
2022-11-16T12:14:49.369Z,12.32
2022-11-16T12:17:35.728Z,12.45
2022-11-16T12:20:11.554Z,12.40
2022-11-16T12:22:48.738Z,12.29
2022-11-16T12:25:25.140Z,12.48
2022-11-16T12:28:25.055Z,12.47
2022-11-16T12:31:14.137Z,12.42
2022-11-16T12:34:01.977Z,12.40
2022-11-16T12:37:08.109Z,12.55
2022-11-16T12:39:45.512Z,12.56
2022-11-16T12:42:22.334Z,12.51
2022-11-16T12:45:06.198Z,12.42
2022-11-16T12:48:03.612Z,13.03
2022-11-16T12:51:05.054Z,12.49
2022-11-16T12:53:56.194Z,12.83
2022-11-16T12:56:38.501Z,12.67
2022-11-16T12:59:26.481Z,12.74
2022-11-16T13:02:00.579Z,12.91
2022-11-16T13:04:37.254Z,12.91
2022-11-16T13:07:20.136Z,12.66
2022-11-16T13:09:51.209Z,12.55
2022-11-16T13:12:23.303Z,12.62
2022-11-16T13:14:52.821Z,12.68
2022-11-16T13:17:22.903Z,12.90
2022-11-16T13:20:25.817Z,12.77
2022-11-16T13:23:18.529Z,12.95
2022-11-16T13:26:19.008Z,12.68
2022-11-16T13:29:01.301Z,12.88
2022-11-16T13:31:38.405Z,12.98
2022-11-16T13:34:18.458Z,12.93
2022-11-16T13:36:47.663Z,12.93
2022-11-16T13:39:22.681Z,12.74
2022-11-16T13:42:07.445Z,12.93
2022-11-16T13:44:34.727Z,12.86
2022-11-16T13:47:04.876Z,13.14
2022-11-16T13:49:41.796Z,13.23
2022-11-16T13:52:23.300Z,13.35
2022-11-16T13:54:54.164Z,13.20
2022-11-16T13:57:25.250Z,13.21
2022-11-16T14:00:20.465Z,13.54
2022-11-16T14:02:47.392Z,13.72
2022-11-16T14:05:35.514Z,13.79
2022-11-16T14:08:20.632Z,13.65
2022-11-16T14:10:50.244Z,13.39
2022-11-16T14:13:36.157Z,13.53
2022-11-16T14:16:14.939Z,13.63
2022-11-16T14:18:43.652Z,13.39
2022-11-16T14:21:19.368Z,13.28
2022-11-16T14:23:48.447Z,13.34
2022-11-16T14:26:52.439Z,13.42
2022-11-16T14:29:40.379Z,13.30
2022-11-16T14:32:20.882Z,13.07
2022-11-16T14:34:50.348Z,12.96
2022-11-16T14:37:40.307Z,13.04
2022-11-16T14:40:08.478Z,12.79
2022-11-16T14:43:14.981Z,12.67
2022-11-16T14:45:38.501Z,12.97
2022-11-16T14:48:22.692Z,13.02
2022-11-16T14:51:03.591Z,13.09
2022-11-16T14:53:31.916Z,12.90
2022-11-16T14:56:10.717Z,13.28
2022-11-16T14:58:38.010Z,13.29
2022-11-16T15:01:13.852Z,13.19
2022-11-16T15:03:48.491Z,13.25
2022-11-16T15:06:16.377Z,13.39
2022-11-16T15:08:48.537Z,13.45
2022-11-16T15:11:51.451Z,13.41
2022-11-16T15:14:22.178Z,12.97
2022-11-16T15:16:53.877Z,12.97
2022-11-16T15:19:21.420Z,13.12
2022-11-16T15:21:59.593Z,13.07
2022-11-16T15:24:34.644Z,12.99
2022-11-16T15:27:30.376Z,12.76
2022-11-16T15:29:57.003Z,12.95
2022-11-16T15:32:23.672Z,12.89
2022-11-16T15:34:53.474Z,12.85
2022-11-16T15:37:27.985Z,12.55
2022-11-16T15:39:56.356Z,12.70
2022-11-16T15:42:25.622Z,12.72
2022-11-16T15:44:52.999Z,12.64
2022-11-16T15:47:21.584Z,12.42
2022-11-16T15:49:52.850Z,12.28
2022-11-16T15:52:43.656Z,12.67
2022-11-16T15:55:28.919Z,12.62
2022-11-16T15:58:25.669Z,12.75
2022-11-16T16:00:53.530Z,12.74
2022-11-16T16:03:26.257Z,12.65
2022-11-16T16:05:53.724Z,12.66
2022-11-16T16:08:26.303Z,12.54
2022-11-16T16:11:12.427Z,12.63
2022-11-16T16:13:41.892Z,12.20
2022-11-16T16:16:37.393Z,12.11
2022-11-16T16:19:44.231Z,11.42
2022-11-16T16:22:23.561Z,11.49
2022-11-16T16:24:50.154Z,11.54
2022-11-16T16:27:23.416Z,11.33
2022-11-16T16:29:52.223Z,11.29
2022-11-16T16:32:26.022Z,11.44
2022-11-16T16:34:54.218Z,11.19
2022-11-16T16:37:21.068Z,11.15
2022-11-16T16:39:47.926Z,11.72
2022-11-16T16:42:16.598Z,11.42
2022-11-16T16:44:44.789Z,11.39
2022-11-16T16:47:11.918Z,11.15
2022-11-16T16:49:38.624Z,11.45
2022-11-16T16:52:06.554Z,11.36
2022-11-16T16:54:33.720Z,11.45
2022-11-16T16:57:02.322Z,11.46
2022-11-16T16:59:32.294Z,11.62
2022-11-16T17:01:59.781Z,11.40
2022-11-16T17:04:26.610Z,11.27
2022-11-16T17:06:53.957Z,11.26
2022-11-16T17:09:20.787Z,11.56
2022-11-16T17:11:47.726Z,11.46
2022-11-16T17:14:14.451Z,11.12
2022-11-16T17:16:41.121Z,11.00
2022-11-16T17:19:07.781Z,11.30
2022-11-16T17:21:34.393Z,11.16
2022-11-16T17:24:01.008Z,11.34
2022-11-16T17:26:29.538Z,10.92
2022-11-16T17:28:57.404Z,11.17
2022-11-16T17:31:25.346Z,11.32
2022-11-16T17:33:52.353Z,11.04
2022-11-16T17:36:19.336Z,11.14
2022-11-16T17:38:46.633Z,11.12
2022-11-16T17:41:19.064Z,11.27
2022-11-16T17:43:46.670Z,11.20
2022-11-16T17:46:18.728Z,11.31
2022-11-16T17:48:47.073Z,11.23
2022-11-16T17:51:16.552Z,11.09
2022-11-16T17:53:46.483Z,11.05
2022-11-16T17:56:16.073Z,11.05
2022-11-16T17:58:42.853Z,11.12
2022-11-16T18:01:09.531Z,10.94
2022-11-16T18:03:36.739Z,10.79
2022-11-16T18:06:13.414Z,10.98
2022-11-16T18:08:41.037Z,10.87
2022-11-16T18:11:10.210Z,10.83
2022-11-16T18:13:37.594Z,10.84
2022-11-16T18:16:09.889Z,10.81
2022-11-16T18:18:37.811Z,10.73
2022-11-16T18:21:05.480Z,10.78
2022-11-16T18:23:33.840Z,10.84
2022-11-16T18:26:03.071Z,10.84
2022-11-16T18:28:30.245Z,10.78
2022-11-16T18:31:09.612Z,10.85
2022-11-16T18:33:37.636Z,10.65
2022-11-16T18:36:05.909Z,10.85
2022-11-16T18:38:32.981Z,10.73
2022-11-16T18:41:12.794Z,10.55
2022-11-16T18:43:49.699Z,10.57
2022-11-16T18:46:31.226Z,10.52
2022-11-16T18:48:58.867Z,10.48
2022-11-16T18:51:27.276Z,10.67
2022-11-16T18:53:54.522Z,10.86
2022-11-16T18:56:21.458Z,10.60
2022-11-16T18:58:51.247Z,10.54
2022-11-16T19:01:21.803Z,10.56
2022-11-16T19:03:48.773Z,10.73
2022-11-16T19:06:17.120Z,10.62
2022-11-16T19:08:46.895Z,10.74
2022-11-16T19:11:17.116Z,10.60
2022-11-16T19:13:44.618Z,10.68
2022-11-16T19:16:13.457Z,10.63
2022-11-16T19:18:40.481Z,10.49
2022-11-16T19:21:09.877Z,10.51
2022-11-16T19:23:41.083Z,10.21
2022-11-16T19:26:07.778Z,10.37
2022-11-16T19:28:38.919Z,10.63
2022-11-16T19:31:08.515Z,10.76
2022-11-16T19:33:35.779Z,10.84
2022-11-16T19:36:20.843Z,10.62
2022-11-16T19:38:48.176Z,10.69
2022-11-16T19:41:16.914Z,10.74
2022-11-16T19:43:43.773Z,10.70
2022-11-16T19:46:12.659Z,10.61
2022-11-16T19:48:39.824Z,10.65
2022-11-16T19:51:11.850Z,10.54
2022-11-16T19:53:39.461Z,10.49
2022-11-16T19:56:07.249Z,10.44
2022-11-16T19:58:38.360Z,10.33
2022-11-16T20:01:07.152Z,10.72
2022-11-16T20:03:34.483Z,10.80
2022-11-16T20:06:12.694Z,10.22
2022-11-16T20:08:40.934Z,10.24
2022-11-16T20:11:15.606Z,9.91
2022-11-16T20:13:42.628Z,10.01
2022-11-16T20:16:11.374Z,9.88
2022-11-16T20:18:39.361Z,10.49
2022-11-16T20:21:07.634Z,10.09
2022-11-16T20:23:35.012Z,10.35
2022-11-16T20:26:09.739Z,10.27
2022-11-16T20:28:38.318Z,10.18
2022-11-16T20:31:13.015Z,9.97
2022-11-16T20:33:39.981Z,9.94
2022-11-16T20:36:09.256Z,10.02
2022-11-16T20:38:37.442Z,10.18
2022-11-16T20:41:18.372Z,10.24
2022-11-16T20:43:46.397Z,10.31
2022-11-16T20:46:15.187Z,10.39
2022-11-16T20:48:42.804Z,10.32
2022-11-16T20:51:11.721Z,10.50
2022-11-16T20:53:38.717Z,10.34
2022-11-16T20:56:05.959Z,10.22
2022-11-16T20:58:33.245Z,10.47
2022-11-16T21:01:14.397Z,10.53
2022-11-16T21:03:42.456Z,10.46
2022-11-16T21:06:09.075Z,10.46
2022-11-16T21:08:36.758Z,10.48
2022-11-16T21:11:12.869Z,10.25
2022-11-16T21:13:58.144Z,10.11
2022-11-16T21:16:24.870Z,10.20
2022-11-16T21:18:51.538Z,10.27
2022-11-16T21:21:18.194Z,10.15
2022-11-16T21:23:51.240Z,10.06
2022-11-16T21:26:24.108Z,10.32
2022-11-16T21:28:51.509Z,10.23
2022-11-16T21:31:20.794Z,9.94
2022-11-16T21:33:48.023Z,10.00
2022-11-16T21:36:16.879Z,10.32
2022-11-16T21:38:44.358Z,10.39
2022-11-16T21:41:13.274Z,10.17
2022-11-16T21:43:42.738Z,10.33
2022-11-16T21:46:24.771Z,10.46
2022-11-16T21:48:52.819Z,10.49
2022-11-16T21:51:21.484Z,10.54
2022-11-16T21:53:48.634Z,10.48
2022-11-16T21:56:17.614Z,10.46
2022-11-16T21:58:45.108Z,10.26
2022-11-16T22:01:13.267Z,10.34
2022-11-16T22:03:40.001Z,10.43
2022-11-16T22:06:26.708Z,10.45
2022-11-16T22:08:53.402Z,10.37
2022-11-16T22:11:22.213Z,10.32
2022-11-16T22:13:50.192Z,10.46
2022-11-16T22:16:18.853Z,10.50
2022-11-16T22:18:45.492Z,10.45
2022-11-16T22:21:12.294Z,10.61
2022-11-16T22:23:39.570Z,10.64
2022-11-16T22:26:07.630Z,10.60
2022-11-16T22:28:35.436Z,10.43
2022-11-16T22:31:06.693Z,10.45
2022-11-16T22:33:34.573Z,10.44
2022-11-16T22:36:01.875Z,10.60
2022-11-16T22:38:28.652Z,10.32
2022-11-16T22:40:56.918Z,10.46
2022-11-16T22:43:26.554Z,10.55
2022-11-16T22:46:00.223Z,10.62
2022-11-16T22:48:35.480Z,10.68
2022-11-16T22:51:28.959Z,10.61
2022-11-16T22:54:03.793Z,10.40
2022-11-16T22:56:32.329Z,10.39
2022-11-16T22:59:00.709Z,10.39
2022-11-16T23:01:27.366Z,10.35
2022-11-16T23:03:54.095Z,10.34
2022-11-16T23:06:20.863Z,10.27
2022-11-16T23:08:47.773Z,10.29
2022-11-16T23:11:35.546Z,10.33
2022-11-16T23:14:21.197Z,10.42
2022-11-16T23:16:47.992Z,10.48
2022-11-16T23:19:36.039Z,10.58
2022-11-16T23:22:22.326Z,10.89
2022-11-16T23:25:07.450Z,10.92
2022-11-16T23:27:42.587Z,10.58
2022-11-16T23:30:12.698Z,10.50
2022-11-16T23:32:40.494Z,10.71
2022-11-16T23:35:07.717Z,10.73
2022-11-16T23:37:34.646Z,10.80
2022-11-16T23:40:01.222Z,10.88
2022-11-16T23:43:00.068Z,10.90
2022-11-16T23:45:26.655Z,10.51
2022-11-16T23:47:53.270Z,10.49
2022-11-16T23:50:19.832Z,10.51
2022-11-16T23:52:46.804Z,10.73
2022-11-16T23:55:13.408Z,10.47
2022-11-16T23:57:40.044Z,10.53
